createdAt,value
2022-10-02T00:02:44.320Z,12.38
2022-10-02T00:05:47.038Z,12.38
2022-10-02T00:08:48.816Z,12.29
2022-10-02T00:11:50.470Z,12.23
2022-10-02T00:14:52.553Z,12.27
2022-10-02T00:17:54.874Z,12.26
2022-10-02T00:20:56.206Z,12.27
2022-10-02T00:23:58.577Z,12.18
2022-10-02T00:27:15.323Z,12.14
2022-10-02T00:30:17.037Z,12.15
2022-10-02T00:33:21.931Z,12.38
2022-10-02T00:36:26.250Z,12.38
2022-10-02T00:39:43.989Z,12.48
2022-10-02T00:42:48.307Z,12.64
2022-10-02T00:45:52.813Z,12.56
2022-10-02T00:49:06.405Z,12.46
2022-10-02T00:52:17.030Z,12.33
2022-10-02T00:55:31.166Z,12.24
2022-10-02T00:58:49.160Z,12.25
2022-10-02T01:01:56.458Z,12.21
2022-10-02T01:04:58.204Z,12.14
2022-10-02T01:08:00.750Z,12.15
2022-10-02T01:11:02.477Z,12.32
2022-10-02T01:14:03.837Z,12.32
2022-10-02T01:17:24.621Z,12.42
2022-10-02T01:20:34.488Z,12.37
2022-10-02T01:23:35.805Z,12.39
2022-10-02T01:26:37.422Z,12.58
2022-10-02T01:29:39.006Z,12.73
2022-10-02T01:32:41.340Z,12.68
2022-10-02T01:35:42.709Z,12.69
2022-10-02T01:38:44.183Z,12.68
2022-10-02T01:41:45.635Z,12.61
2022-10-02T01:44:46.980Z,12.49
2022-10-02T01:47:51.967Z,12.49
2022-10-02T01:50:56.712Z,12.70
2022-10-02T01:54:07.298Z,12.72
2022-10-02T01:57:15.860Z,12.61
2022-10-02T02:00:17.765Z,12.59
2022-10-02T02:03:22.274Z,12.57
2022-10-02T02:06:42.142Z,12.50
2022-10-02T02:10:03.745Z,12.44
2022-10-02T02:13:11.223Z,12.46
2022-10-02T02:16:20.614Z,12.42
2022-10-02T02:19:23.909Z,12.39
2022-10-02T02:22:29.085Z,12.53
2022-10-02T02:25:30.445Z,12.56
2022-10-02T02:28:31.983Z,12.44
2022-10-02T02:31:34.471Z,12.38
2022-10-02T02:34:37.527Z,12.36
2022-10-02T02:37:39.088Z,12.39
2022-10-02T02:40:41.845Z,12.22
2022-10-02T02:43:59.706Z,12.09
2022-10-02T02:47:06.812Z,11.96
2022-10-02T02:50:23.693Z,11.93
2022-10-02T02:53:26.247Z,11.93
2022-10-02T02:56:27.628Z,11.98
2022-10-02T02:59:28.961Z,11.93
2022-10-02T03:02:30.400Z,11.92
2022-10-02T03:05:31.785Z,11.90
2022-10-02T03:08:34.277Z,11.88
2022-10-02T03:11:56.417Z,11.84
2022-10-02T03:15:02.411Z,11.81
2022-10-02T03:18:06.735Z,11.88
2022-10-02T03:21:10.600Z,12.05
2022-10-02T03:24:16.024Z,12.10
2022-10-02T03:27:26.202Z,12.08
2022-10-02T03:30:27.539Z,12.15
2022-10-02T03:33:29.084Z,12.15
2022-10-02T03:36:30.435Z,12.49
2022-10-02T03:39:31.805Z,12.45
2022-10-02T03:42:33.713Z,12.44
2022-10-02T03:45:51.872Z,12.39
2022-10-02T03:48:56.465Z,12.37
2022-10-02T03:51:57.859Z,12.30
2022-10-02T03:55:01.713Z,12.24
2022-10-02T03:58:05.191Z,12.43
2022-10-02T04:01:45.616Z,12.42
2022-10-02T04:04:52.161Z,12.36
2022-10-02T04:07:58.167Z,12.41
2022-10-02T04:11:01.887Z,12.49
2022-10-02T04:14:08.745Z,12.44
2022-10-02T04:17:11.506Z,12.34
2022-10-02T04:20:23.563Z,12.27
2022-10-02T04:23:29.491Z,12.22
2022-10-02T04:26:33.106Z,12.20
2022-10-02T04:29:39.052Z,12.19
2022-10-02T04:32:40.399Z,12.18
2022-10-02T04:35:48.447Z,12.18
2022-10-02T04:38:52.768Z,12.21
2022-10-02T04:42:07.180Z,12.20
2022-10-02T04:45:16.211Z,12.20
2022-10-02T04:48:17.504Z,12.15
2022-10-02T04:51:35.111Z,12.00
2022-10-02T04:54:39.501Z,11.87
2022-10-02T04:57:53.086Z,11.74
2022-10-02T05:01:13.236Z,11.61
2022-10-02T05:04:20.483Z,11.50
2022-10-02T05:07:37.965Z,11.43
2022-10-02T05:10:39.648Z,11.38
2022-10-02T05:13:48.523Z,11.33
2022-10-02T05:17:08.633Z,11.25
2022-10-02T05:20:33.231Z,11.27
2022-10-02T05:23:37.564Z,11.21
2022-10-02T05:27:11.503Z,11.22
2022-10-02T05:30:21.923Z,11.19
2022-10-02T05:33:28.285Z,11.17
2022-10-02T05:36:32.364Z,11.12
2022-10-02T05:39:34.106Z,11.12
2022-10-02T05:42:46.845Z,11.13
2022-10-02T05:46:01.796Z,11.11
2022-10-02T05:49:06.814Z,11.11
2022-10-02T05:52:08.189Z,11.12
2022-10-02T05:55:14.982Z,11.18
2022-10-02T05:58:20.940Z,11.18
2022-10-02T06:01:23.361Z,11.12
2022-10-02T06:04:29.069Z,11.11
2022-10-02T06:07:30.466Z,11.13
2022-10-02T06:10:33.783Z,11.10
2022-10-02T06:13:38.730Z,11.13
2022-10-02T06:16:42.591Z,11.11
2022-10-02T06:19:43.909Z,11.13
2022-10-02T06:22:47.200Z,11.12
2022-10-02T06:25:49.790Z,11.13
2022-10-02T06:28:51.102Z,11.13
2022-10-02T06:32:07.209Z,11.15
2022-10-02T06:35:12.291Z,11.16
2022-10-02T06:38:22.863Z,11.19
2022-10-02T06:41:30.213Z,11.19
2022-10-02T06:44:45.076Z,11.20
2022-10-02T06:47:54.154Z,11.28
2022-10-02T06:51:07.799Z,11.51
2022-10-02T06:54:19.192Z,11.65
2022-10-02T06:57:24.259Z,11.85
2022-10-02T07:00:26.527Z,12.26
2022-10-02T07:03:34.259Z,12.66
2022-10-02T07:06:47.776Z,12.74
2022-10-02T07:09:52.216Z,12.89
2022-10-02T07:13:05.876Z,13.18
2022-10-02T07:16:11.019Z,13.18
2022-10-02T07:19:31.057Z,13.30
2022-10-02T07:22:46.226Z,13.39
2022-10-02T07:25:51.896Z,13.37
2022-10-02T07:29:08.792Z,13.44
2022-10-02T07:32:30.997Z,13.50
2022-10-02T07:35:37.412Z,13.46
2022-10-02T07:38:45.783Z,13.44
2022-10-02T07:42:06.040Z,13.52
2022-10-02T07:45:07.629Z,13.67
2022-10-02T07:48:08.987Z,13.78
2022-10-02T07:51:34.790Z,13.73
2022-10-02T07:54:40.032Z,13.89
2022-10-02T07:57:45.900Z,13.89
2022-10-02T08:00:54.650Z,14.02
2022-10-02T08:03:56.815Z,14.20
2022-10-02T08:07:00.279Z,14.27
2022-10-02T08:10:03.331Z,14.35
2022-10-02T08:13:07.062Z,14.49
2022-10-02T08:16:08.823Z,14.54
2022-10-02T08:19:39.676Z,14.59
2022-10-02T08:22:41.411Z,14.75
2022-10-02T08:25:43.537Z,14.77
2022-10-02T08:28:46.994Z,14.66
2022-10-02T08:31:49.930Z,14.58
2022-10-02T08:34:51.387Z,14.52
2022-10-02T08:38:12.395Z,14.70
2022-10-02T08:41:22.943Z,14.65
2022-10-02T08:44:27.318Z,14.64
2022-10-02T08:47:33.020Z,14.65
2022-10-02T08:50:41.884Z,14.71
2022-10-02T08:54:18.992Z,14.85
2022-10-02T08:57:27.335Z,14.98
2022-10-02T09:00:37.858Z,14.95
2022-10-02T09:03:44.847Z,15.03
2022-10-02T09:06:46.260Z,15.10
2022-10-02T09:10:06.407Z,15.03
2022-10-02T09:13:26.578Z,15.01
2022-10-02T09:16:31.124Z,15.18
2022-10-02T09:19:51.020Z,15.80
2022-10-02T09:22:55.745Z,16.28
2022-10-02T09:25:59.154Z,16.23
2022-10-02T09:29:20.130Z,16.07
2022-10-02T09:32:34.617Z,16.06
2022-10-02T09:35:36.008Z,16.15
2022-10-02T09:38:39.275Z,16.16
2022-10-02T09:42:00.740Z,16.28
2022-10-02T09:45:21.106Z,16.46
2022-10-02T09:48:34.651Z,16.84
2022-10-02T09:51:55.606Z,16.96
2022-10-02T09:55:05.334Z,16.93
2022-10-02T09:58:16.223Z,16.74
2022-10-02T10:01:25.599Z,16.68
2022-10-02T10:04:37.948Z,16.67
2022-10-02T10:07:57.426Z,16.58
2022-10-02T10:11:12.392Z,16.49
2022-10-02T10:14:25.016Z,16.47
2022-10-02T10:17:32.462Z,16.39
2022-10-02T10:20:54.140Z,16.64
2022-10-02T10:24:01.650Z,16.63
2022-10-02T10:27:09.110Z,16.57
2022-10-02T10:30:28.915Z,16.62
2022-10-02T10:33:34.560Z,16.62
2022-10-02T10:37:07.889Z,16.61
2022-10-02T10:40:09.663Z,16.50
2022-10-02T10:43:32.055Z,16.45
2022-10-02T10:46:42.705Z,16.42
2022-10-02T10:49:43.976Z,16.38
2022-10-02T10:53:04.269Z,16.27
2022-10-02T10:56:26.088Z,16.18
2022-10-02T10:59:27.381Z,16.12
2022-10-02T11:02:47.416Z,15.95
2022-10-02T11:05:57.999Z,15.92
2022-10-02T11:09:18.287Z,15.80
2022-10-02T11:12:28.254Z,15.73
2022-10-02T11:15:29.606Z,15.68
2022-10-02T11:18:40.178Z,15.55
2022-10-02T11:21:48.597Z,15.48
2022-10-02T11:25:12.841Z,15.33
2022-10-02T11:28:21.847Z,15.18
2022-10-02T11:31:23.393Z,15.06
2022-10-02T11:34:46.558Z,15.12
2022-10-02T11:38:06.714Z,14.99
2022-10-02T11:41:08.185Z,14.86
2022-10-02T11:44:11.387Z,14.69
2022-10-02T11:47:18.892Z,14.56
2022-10-02T11:50:38.614Z,14.56
2022-10-02T11:53:45.089Z,14.51
2022-10-02T11:57:00.503Z,14.59
2022-10-02T12:00:31.705Z,14.60
2022-10-02T12:04:05.542Z,14.66
2022-10-02T12:07:06.867Z,14.61
2022-10-02T12:10:17.292Z,14.65
2022-10-02T12:13:24.596Z,14.69
2022-10-02T12:16:28.926Z,14.67
2022-10-02T12:19:40.558Z,14.64
2022-10-02T12:23:11.043Z,14.63
2022-10-02T12:26:37.306Z,14.61
2022-10-02T12:29:57.301Z,14.67
2022-10-02T12:32:58.625Z,14.68
2022-10-02T12:36:21.275Z,14.76
2022-10-02T12:39:41.661Z,14.90
2022-10-02T12:42:55.279Z,14.89
2022-10-02T12:46:04.272Z,14.97
2022-10-02T12:49:28.409Z,15.01
2022-10-02T12:52:35.831Z,15.04
2022-10-02T12:55:43.128Z,15.16
2022-10-02T12:58:53.484Z,15.18
2022-10-02T13:02:07.360Z,15.31
2022-10-02T13:05:18.740Z,15.32
2022-10-02T13:08:39.704Z,15.24
2022-10-02T13:11:41.042Z,15.32
2022-10-02T13:14:51.578Z,15.32
2022-10-02T13:18:04.962Z,15.31
2022-10-02T13:21:15.552Z,15.35
2022-10-02T13:24:21.302Z,15.29
2022-10-02T13:27:31.899Z,15.23
2022-10-02T13:30:35.646Z,15.22
2022-10-02T13:33:53.177Z,15.23
2022-10-02T13:36:57.675Z,15.21
2022-10-02T13:40:02.750Z,15.28
2022-10-02T13:43:22.479Z,15.38
2022-10-02T13:46:32.915Z,15.43
2022-10-02T13:49:54.153Z,15.39
2022-10-02T13:53:10.649Z,15.46
2022-10-02T13:56:30.871Z,15.55
2022-10-02T13:59:37.708Z,15.70
2022-10-02T14:02:48.704Z,15.62
2022-10-02T14:05:57.771Z,15.51
2022-10-02T14:09:12.486Z,15.45
2022-10-02T14:12:27.551Z,15.42
2022-10-02T14:15:28.883Z,15.34
2022-10-02T14:18:36.279Z,15.23
2022-10-02T14:21:43.505Z,15.24
2022-10-02T14:25:00.005Z,15.50
2022-10-02T14:28:02.334Z,15.74
2022-10-02T14:31:22.538Z,15.74
2022-10-02T14:34:29.774Z,15.72
2022-10-02T14:37:37.534Z,15.63
2022-10-02T14:40:45.616Z,15.52
2022-10-02T14:44:06.577Z,15.04
2022-10-02T14:47:15.627Z,14.62
2022-10-02T14:50:29.318Z,14.38
2022-10-02T14:53:43.235Z,14.33
2022-10-02T14:56:53.893Z,14.26
2022-10-02T15:00:14.196Z,14.15
2022-10-02T15:03:38.026Z,14.12
2022-10-02T15:06:59.566Z,14.13
2022-10-02T15:10:16.784Z,14.12
2022-10-02T15:13:28.433Z,14.08
2022-10-02T15:16:52.693Z,14.04
2022-10-02T15:20:05.975Z,14.10
2022-10-02T15:23:13.790Z,14.10
2022-10-02T15:26:15.100Z,14.13
2022-10-02T15:29:29.563Z,14.12
2022-10-02T15:32:50.395Z,14.11
2022-10-02T15:36:00.990Z,14.08
2022-10-02T15:39:21.298Z,14.01
2022-10-02T15:42:48.050Z,14.00
2022-10-02T15:46:03.656Z,13.96
2022-10-02T15:49:08.648Z,13.92
2022-10-02T15:52:30.239Z,13.86
2022-10-02T15:55:41.658Z,13.85
2022-10-02T15:59:01.827Z,13.85
2022-10-02T16:02:06.548Z,13.86
2022-10-02T16:05:21.353Z,13.84
2022-10-02T16:08:28.790Z,13.86
2022-10-02T16:11:49.080Z,13.83
2022-10-02T16:15:07.721Z,13.75
2022-10-02T16:18:13.873Z,13.65
2022-10-02T16:21:34.257Z,13.57
2022-10-02T16:24:41.159Z,13.51
2022-10-02T16:28:01.400Z,13.52
2022-10-02T16:31:22.596Z,13.45
2022-10-02T16:34:28.054Z,13.45
2022-10-02T16:37:37.721Z,13.39
2022-10-02T16:40:51.401Z,13.37
2022-10-02T16:44:11.689Z,13.34
2022-10-02T16:47:14.318Z,13.30
2022-10-02T16:50:19.876Z,13.23
2022-10-02T16:53:24.443Z,13.18
2022-10-02T16:56:33.109Z,13.17
2022-10-02T16:59:43.481Z,13.18
2022-10-02T17:02:46.625Z,13.17
2022-10-02T17:05:51.109Z,12.97
2022-10-02T17:09:01.099Z,12.95
2022-10-02T17:12:03.929Z,12.78
2022-10-02T17:15:13.661Z,12.65
2022-10-02T17:18:21.115Z,12.58
2022-10-02T17:21:25.917Z,12.37
2022-10-02T17:24:30.360Z,12.20
2022-10-02T17:27:35.307Z,12.11
2022-10-02T17:30:56.591Z,12.02
2022-10-02T17:33:58.423Z,12.01
2022-10-02T17:37:21.089Z,12.00
2022-10-02T17:40:24.569Z,12.05
2022-10-02T17:43:25.870Z,12.04
2022-10-02T17:46:42.490Z,12.07
2022-10-02T17:49:50.053Z,11.99
2022-10-02T17:53:10.183Z,11.91
2022-10-02T17:56:30.530Z,11.88
2022-10-02T17:59:50.673Z,11.92
2022-10-02T18:03:01.146Z,11.91
2022-10-02T18:06:21.316Z,11.92
2022-10-02T18:09:32.083Z,11.78
2022-10-02T18:12:51.376Z,11.85
2022-10-02T18:16:05.853Z,11.83
2022-10-02T18:19:22.785Z,11.85
2022-10-02T18:22:30.968Z,11.84
2022-10-02T18:25:49.158Z,11.82
2022-10-02T18:29:05.684Z,11.79
2022-10-02T18:32:13.113Z,11.77
2022-10-02T18:35:33.446Z,11.77
2022-10-02T18:38:53.163Z,11.76
2022-10-02T18:41:55.509Z,11.75
2022-10-02T18:45:16.206Z,11.74
2022-10-02T18:48:36.526Z,11.71
2022-10-02T18:51:55.503Z,11.67
2022-10-02T18:55:09.095Z,11.65
2022-10-02T18:58:11.633Z,11.66
2022-10-02T19:01:15.903Z,11.68
2022-10-02T19:04:20.297Z,11.64
2022-10-02T19:07:29.825Z,11.64
2022-10-02T19:10:31.133Z,11.63
2022-10-02T19:13:33.528Z,11.58
2022-10-02T19:16:35.615Z,11.54
2022-10-02T19:19:37.051Z,11.53
2022-10-02T19:22:38.521Z,11.57
2022-10-02T19:25:43.850Z,11.58
2022-10-02T19:28:47.079Z,11.58
2022-10-02T19:31:48.477Z,11.53
2022-10-02T19:34:50.969Z,11.56
2022-10-02T19:37:52.751Z,11.50
2022-10-02T19:40:54.282Z,11.51
2022-10-02T19:43:56.508Z,11.48
2022-10-02T19:46:58.187Z,11.50
2022-10-02T19:50:00.241Z,11.49
2022-10-02T19:53:02.248Z,11.46
2022-10-02T19:56:04.366Z,11.46
2022-10-02T19:59:07.998Z,11.47
2022-10-02T20:02:13.367Z,11.48
2022-10-02T20:05:22.077Z,11.46
2022-10-02T20:08:25.993Z,11.42
2022-10-02T20:11:43.261Z,11.39
2022-10-02T20:14:55.649Z,11.41
2022-10-02T20:17:56.961Z,11.29
2022-10-02T20:21:11.024Z,11.23
2022-10-02T20:24:17.581Z,11.17
2022-10-02T20:27:22.123Z,11.13
2022-10-02T20:30:23.904Z,11.08
2022-10-02T20:33:26.558Z,11.08
2022-10-02T20:36:29.094Z,11.02
2022-10-02T20:39:32.804Z,11.02
2022-10-02T20:42:43.166Z,11.01
2022-10-02T20:45:58.599Z,11.00
2022-10-02T20:49:20.436Z,10.98
2022-10-02T20:52:21.764Z,10.96
2022-10-02T20:55:23.280Z,11.01
2022-10-02T20:58:25.141Z,11.01
2022-10-02T21:01:37.455Z,10.99
2022-10-02T21:04:54.272Z,10.95
2022-10-02T21:08:14.230Z,10.92
2022-10-02T21:11:35.722Z,10.97
2022-10-02T21:14:43.484Z,10.94
2022-10-02T21:18:07.623Z,10.91
2022-10-02T21:21:28.675Z,10.92
2022-10-02T21:24:32.745Z,10.91
2022-10-02T21:27:48.477Z,10.96
2022-10-02T21:30:54.277Z,10.92
2022-10-02T21:34:03.914Z,10.85
2022-10-02T21:37:11.053Z,10.85
2022-10-02T21:40:31.523Z,10.86
2022-10-02T21:43:38.844Z,10.81
2022-10-02T21:46:44.085Z,10.76
2022-10-02T21:49:48.418Z,10.73
2022-10-02T21:52:50.196Z,10.72
2022-10-02T21:55:54.706Z,10.75
2022-10-02T21:59:11.326Z,10.77
2022-10-02T22:02:31.478Z,10.78
2022-10-02T22:05:51.841Z,10.80
2022-10-02T22:08:56.478Z,10.81
2022-10-02T22:12:06.979Z,10.85
2022-10-02T22:15:13.381Z,10.85
2022-10-02T22:18:23.880Z,10.83
2022-10-02T22:21:30.344Z,10.81
2022-10-02T22:24:44.512Z,10.77
2022-10-02T22:28:04.771Z,10.74
2022-10-02T22:31:15.145Z,10.74
2022-10-02T22:34:42.669Z,10.75
2022-10-02T22:37:52.663Z,10.75
2022-10-02T22:40:55.085Z,10.76
2022-10-02T22:44:15.197Z,10.77
2022-10-02T22:47:37.143Z,10.81
2022-10-02T22:50:48.624Z,10.80
2022-10-02T22:53:51.309Z,10.80
2022-10-02T22:57:01.825Z,10.80
2022-10-02T23:00:16.574Z,10.82
2022-10-02T23:03:23.675Z,10.81
2022-10-02T23:06:27.964Z,10.84
2022-10-02T23:09:37.343Z,10.82
2022-10-02T23:12:40.606Z,10.82
2022-10-02T23:16:00.511Z,10.81
2022-10-02T23:19:06.868Z,10.82
2022-10-02T23:22:08.944Z,10.82
2022-10-02T23:25:15.559Z,10.78
2022-10-02T23:28:25.295Z,10.69
2022-10-02T23:31:31.387Z,10.68
2022-10-02T23:34:34.977Z,10.69
2022-10-02T23:37:39.274Z,10.69
2022-10-02T23:41:19.961Z,10.69
2022-10-02T23:44:21.268Z,10.70
2022-10-02T23:47:31.967Z,10.74
2022-10-02T23:50:42.245Z,10.76
2022-10-02T23:53:43.544Z,10.72
2022-10-02T23:57:06.992Z,10.66
